sensor_id;sensor_type;location;lat;lon;timestamp;P1;durP1;ratioP1;P2;durP2;ratioP2
2219;SDS011;1116;51.502;7.414;2023-10-19T00:02:10;9.27;;;3.88;;
2219;SDS011;1116;51.502;7.414;2023-10-19T00:04:42;5.32;;;3.85;;
2219;SDS011;1116;51.502;7.414;2023-10-19T00:07:15;6.72;;;3.65;;
2219;SDS011;1116;51.502;7.414;2023-10-19T00:09:43;4.97;;;3.28;;
2219;SDS011;1116;51.502;7.414;2023-10-19T00:12:14;5.18;;;3.35;;
2219;SDS011;1116;51.502;7.414;2023-10-19T00:14:43;6.13;;;3.65;;
2219;SDS011;1116;51.502;7.414;2023-10-19T00:17:13;4.65;;;2.85;;
2219;SDS011;1116;51.502;7.414;2023-10-19T00:19:41;6.72;;;3.63;;
2219;SDS011;1116;51.502;7.414;2023-10-19T00:22:27;6.25;;;3.70;;
2219;SDS011;1116;51.502;7.414;2023-10-19T00:24:57;5.93;;;3.58;;
2219;SDS011;1116;51.502;7.414;2023-10-19T00:27:29;9.88;;;3.38;;
2219;SDS011;1116;51.502;7.414;2023-10-19T00:29:59;3.90;;;2.63;;
2219;SDS011;1116;51.502;7.414;2023-10-19T00:32:33;7.22;;;3.38;;
2219;SDS011;1116;51.502;7.414;2023-10-19T00:35:05;6.07;;;3.40;;
2219;SDS011;1116;51.502;7.414;2023-10-19T00:37:57;4.57;;;3.10;;
2219;SDS011;1116;51.502;7.414;2023-10-19T00:40:49;6.68;;;3.50;;
2219;SDS011;1116;51.502;7.414;2023-10-19T00:43:26;5.32;;;3.58;;
2219;SDS011;1116;51.502;7.414;2023-10-19T00:45:59;5.65;;;3.50;;
2219;SDS011;1116;51.502;7.414;2023-10-19T00:48:36;6.65;;;4.20;;
2219;SDS011;1116;51.502;7.414;2023-10-19T00:51:07;4.82;;;3.58;;
2219;SDS011;1116;51.502;7.414;2023-10-19T00:53:55;6.13;;;3.43;;
2219;SDS011;1116;51.502;7.414;2023-10-19T00:56:31;6.75;;;3.65;;
2219;SDS011;1116;51.502;7.414;2023-10-19T00:59:01;7.68;;;4.05;;
2219;SDS011;1116;51.502;7.414;2023-10-19T01:01:40;4.80;;;3.30;;
2219;SDS011;1116;51.502;7.414;2023-10-19T01:04:15;9.48;;;4.10;;
2219;SDS011;1116;51.502;7.414;2023-10-19T01:06:49;7.37;;;4.30;;
2219;SDS011;1116;51.502;7.414;2023-10-19T01:09:36;5.55;;;3.80;;
2219;SDS011;1116;51.502;7.414;2023-10-19T01:12:07;7.35;;;3.60;;
2219;SDS011;1116;51.502;7.414;2023-10-19T01:15:01;6.55;;;3.40;;
2219;SDS011;1116;51.502;7.414;2023-10-19T01:17:39;7.47;;;3.30;;
2219;SDS011;1116;51.502;7.414;2023-10-19T01:20:12;6.32;;;3.28;;
2219;SDS011;1116;51.502;7.414;2023-10-19T01:22:57;4.75;;;3.20;;
2219;SDS011;1116;51.502;7.414;2023-10-19T01:25:43;14.60;;;3.90;;
2219;SDS011;1116;51.502;7.414;2023-10-19T01:28:17;5.57;;;3.28;;
2219;SDS011;1116;51.502;7.414;2023-10-19T01:30:51;4.47;;;3.03;;
2219;SDS011;1116;51.502;7.414;2023-10-19T01:33:22;4.07;;;2.80;;
2219;SDS011;1116;51.502;7.414;2023-10-19T01:35:54;5.28;;;2.85;;
2219;SDS011;1116;51.502;7.414;2023-10-19T01:38:43;5.50;;;3.38;;
2219;SDS011;1116;51.502;7.414;2023-10-19T01:41:11;6.25;;;3.63;;
2219;SDS011;1116;51.502;7.414;2023-10-19T01:43:45;5.25;;;3.63;;
2219;SDS011;1116;51.502;7.414;2023-10-19T01:46:20;6.65;;;2.95;;
2219;SDS011;1116;51.502;7.414;2023-10-19T01:48:57;5.90;;;3.47;;
2219;SDS011;1116;51.502;7.414;2023-10-19T01:51:25;5.55;;;3.90;;
2219;SDS011;1116;51.502;7.414;2023-10-19T01:54:01;6.80;;;3.80;;
2219;SDS011;1116;51.502;7.414;2023-10-19T01:56:29;13.02;;;4.28;;
2219;SDS011;1116;51.502;7.414;2023-10-19T01:59:02;6.57;;;4.30;;
2219;SDS011;1116;51.502;7.414;2023-10-19T02:01:30;6.75;;;4.55;;
2219;SDS011;1116;51.502;7.414;2023-10-19T02:04:05;9.48;;;5.40;;
2219;SDS011;1116;51.502;7.414;2023-10-19T02:06:43;7.25;;;4.47;;
2219;SDS011;1116;51.502;7.414;2023-10-19T02:09:19;8.38;;;4.82;;
2219;SDS011;1116;51.502;7.414;2023-10-19T02:11:51;8.63;;;4.97;;
2219;SDS011;1116;51.502;7.414;2023-10-19T02:14:24;7.43;;;4.80;;
2219;SDS011;1116;51.502;7.414;2023-10-19T02:16:59;7.28;;;4.85;;
2219;SDS011;1116;51.502;7.414;2023-10-19T02:19:30;10.35;;;5.10;;
2219;SDS011;1116;51.502;7.414;2023-10-19T02:22:01;6.57;;;4.03;;
2219;SDS011;1116;51.502;7.414;2023-10-19T02:24:38;8.77;;;4.73;;
2219;SDS011;1116;51.502;7.414;2023-10-19T02:27:05;7.40;;;4.68;;
2219;SDS011;1116;51.502;7.414;2023-10-19T02:29:44;7.82;;;5.43;;
2219;SDS011;1116;51.502;7.414;2023-10-19T02:32:13;6.70;;;4.10;;
2219;SDS011;1116;51.502;7.414;2023-10-19T02:34:45;8.60;;;4.22;;
2219;SDS011;1116;51.502;7.414;2023-10-19T02:37:15;9.65;;;4.70;;
2219;SDS011;1116;51.502;7.414;2023-10-19T02:39:46;9.27;;;4.90;;
2219;SDS011;1116;51.502;7.414;2023-10-19T02:42:16;8.25;;;4.30;;
2219;SDS011;1116;51.502;7.414;2023-10-19T02:44:44;6.70;;;4.35;;
2219;SDS011;1116;51.502;7.414;2023-10-19T02:47:14;7.32;;;4.35;;
2219;SDS011;1116;51.502;7.414;2023-10-19T02:49:41;5.55;;;3.58;;
2219;SDS011;1116;51.502;7.414;2023-10-19T02:52:18;6.20;;;3.95;;
2219;SDS011;1116;51.502;7.414;2023-10-19T02:54:48;9.63;;;4.15;;
2219;SDS011;1116;51.502;7.414;2023-10-19T02:57:23;7.78;;;4.47;;
2219;SDS011;1116;51.502;7.414;2023-10-19T02:59:51;7.45;;;3.97;;
2219;SDS011;1116;51.502;7.414;2023-10-19T03:02:21;7.05;;;4.13;;
2219;SDS011;1116;51.502;7.414;2023-10-19T03:04:54;6.10;;;3.28;;
2219;SDS011;1116;51.502;7.414;2023-10-19T03:07:25;5.55;;;3.42;;
2219;SDS011;1116;51.502;7.414;2023-10-19T03:09:55;5.97;;;3.25;;
2219;SDS011;1116;51.502;7.414;2023-10-19T03:12:28;4.32;;;3.00;;
2219;SDS011;1116;51.502;7.414;2023-10-19T03:14:57;8.10;;;3.25;;
2219;SDS011;1116;51.502;7.414;2023-10-19T03:17:27;4.63;;;2.63;;
2219;SDS011;1116;51.502;7.414;2023-10-19T03:19:57;6.22;;;3.10;;
2219;SDS011;1116;51.502;7.414;2023-10-19T03:22:27;5.18;;;3.38;;
2219;SDS011;1116;51.502;7.414;2023-10-19T03:24:59;7.32;;;2.92;;
2219;SDS011;1116;51.502;7.414;2023-10-19T03:27:41;7.65;;;3.03;;
2219;SDS011;1116;51.502;7.414;2023-10-19T03:30:11;4.55;;;2.60;;
2219;SDS011;1116;51.502;7.414;2023-10-19T03:32:46;2.67;;;2.03;;
2219;SDS011;1116;51.502;7.414;2023-10-19T03:35:16;7.60;;;3.00;;
2219;SDS011;1116;51.502;7.414;2023-10-19T03:37:47;4.50;;;2.75;;
2219;SDS011;1116;51.502;7.414;2023-10-19T03:40:21;4.25;;;2.42;;
2219;SDS011;1116;51.502;7.414;2023-10-19T03:42:56;6.57;;;2.88;;
2219;SDS011;1116;51.502;7.414;2023-10-19T03:48:05;6.53;;;2.45;;
2219;SDS011;1116;51.502;7.414;2023-10-19T03:50:37;6.28;;;2.72;;
2219;SDS011;1116;51.502;7.414;2023-10-19T03:53:09;4.57;;;2.90;;
2219;SDS011;1116;51.502;7.414;2023-10-19T03:55:42;4.32;;;2.55;;
2219;SDS011;1116;51.502;7.414;2023-10-19T03:58:13;3.85;;;2.55;;
2219;SDS011;1116;51.502;7.414;2023-10-19T04:00:47;5.63;;;2.67;;
2219;SDS011;1116;51.502;7.414;2023-10-19T04:03:18;4.93;;;2.20;;
2219;SDS011;1116;51.502;7.414;2023-10-19T04:05:51;5.13;;;2.42;;
2219;SDS011;1116;51.502;7.414;2023-10-19T04:08:22;4.53;;;2.33;;
2219;SDS011;1116;51.502;7.414;2023-10-19T04:10:55;2.85;;;2.05;;
2219;SDS011;1116;51.502;7.414;2023-10-19T04:13:38;2.47;;;1.80;;
2219;SDS011;1116;51.502;7.414;2023-10-19T04:16:08;4.38;;;2.28;;
2219;SDS011;1116;51.502;7.414;2023-10-19T04:18:39;6.28;;;1.95;;
2219;SDS011;1116;51.502;7.414;2023-10-19T04:21:10;3.13;;;1.90;;
2219;SDS011;1116;51.502;7.414;2023-10-19T04:23:40;4.63;;;1.75;;
2219;SDS011;1116;51.502;7.414;2023-10-19T04:26:13;2.00;;;1.40;;
2219;SDS011;1116;51.502;7.414;2023-10-19T04:28:45;4.75;;;1.88;;
2219;SDS011;1116;51.502;7.414;2023-10-19T04:31:16;2.97;;;1.60;;
2219;SDS011;1116;51.502;7.414;2023-10-19T04:33:50;2.55;;;1.70;;
2219;SDS011;1116;51.502;7.414;2023-10-19T04:36:21;2.75;;;1.50;;
2219;SDS011;1116;51.502;7.414;2023-10-19T04:38:52;2.97;;;1.77;;
2219;SDS011;1116;51.502;7.414;2023-10-19T04:41:25;4.15;;;1.42;;
2219;SDS011;1116;51.502;7.414;2023-10-19T04:43:56;2.80;;;1.80;;
2219;SDS011;1116;51.502;7.414;2023-10-19T04:46:27;6.03;;;1.77;;
2219;SDS011;1116;51.502;7.414;2023-10-19T04:48:57;3.08;;;1.70;;
2219;SDS011;1116;51.502;7.414;2023-10-19T04:51:27;5.45;;;2.00;;
2219;SDS011;1116;51.502;7.414;2023-10-19T04:53:57;6.10;;;2.33;;
2219;SDS011;1116;51.502;7.414;2023-10-19T04:56:31;3.95;;;2.05;;
2219;SDS011;1116;51.502;7.414;2023-10-19T04:59:02;5.85;;;2.33;;
2219;SDS011;1116;51.502;7.414;2023-10-19T05:01:33;3.42;;;2.03;;
2219;SDS011;1116;51.502;7.414;2023-10-19T05:04:04;4.43;;;1.80;;
2219;SDS011;1116;51.502;7.414;2023-10-19T05:06:34;5.40;;;1.80;;
2219;SDS011;1116;51.502;7.414;2023-10-19T05:09:05;4.63;;;1.90;;
2219;SDS011;1116;51.502;7.414;2023-10-19T05:11:37;7.13;;;3.50;;
2219;SDS011;1116;51.502;7.414;2023-10-19T05:14:08;3.35;;;2.08;;
2219;SDS011;1116;51.502;7.414;2023-10-19T05:16:40;2.50;;;1.67;;
2219;SDS011;1116;51.502;7.414;2023-10-19T05:19:10;2.72;;;1.65;;
2219;SDS011;1116;51.502;7.414;2023-10-19T05:21:38;4.93;;;1.80;;
2219;SDS011;1116;51.502;7.414;2023-10-19T05:24:08;3.95;;;1.95;;
2219;SDS011;1116;51.502;7.414;2023-10-19T05:26:41;6.00;;;1.92;;
2219;SDS011;1116;51.502;7.414;2023-10-19T05:29:12;3.33;;;1.85;;
2219;SDS011;1116;51.502;7.414;2023-10-19T05:31:43;2.55;;;1.52;;
2219;SDS011;1116;51.502;7.414;2023-10-19T05:34:13;2.63;;;1.85;;
2219;SDS011;1116;51.502;7.414;2023-10-19T05:36:43;3.88;;;2.20;;
2219;SDS011;1116;51.502;7.414;2023-10-19T05:39:15;5.38;;;2.17;;
2219;SDS011;1116;51.502;7.414;2023-10-19T05:41:49;2.85;;;1.80;;
2219;SDS011;1116;51.502;7.414;2023-10-19T05:44:20;4.10;;;2.25;;
2219;SDS011;1116;51.502;7.414;2023-10-19T05:46:51;3.28;;;1.90;;
2219;SDS011;1116;51.502;7.414;2023-10-19T05:49:22;4.97;;;2.05;;
2219;SDS011;1116;51.502;7.414;2023-10-19T05:51:53;5.75;;;1.60;;
2219;SDS011;1116;51.502;7.414;2023-10-19T05:54:23;2.78;;;1.80;;
2219;SDS011;1116;51.502;7.414;2023-10-19T05:56:56;4.88;;;2.20;;
2219;SDS011;1116;51.502;7.414;2023-10-19T05:59:26;4.78;;;1.40;;
2219;SDS011;1116;51.502;7.414;2023-10-19T06:01:59;3.42;;;1.60;;
2219;SDS011;1116;51.502;7.414;2023-10-19T06:04:34;2.03;;;1.30;;
2219;SDS011;1116;51.502;7.414;2023-10-19T06:07:05;2.20;;;1.52;;
2219;SDS011;1116;51.502;7.414;2023-10-19T06:09:35;4.72;;;2.08;;
2219;SDS011;1116;51.502;7.414;2023-10-19T06:12:09;4.25;;;1.83;;
2219;SDS011;1116;51.502;7.414;2023-10-19T06:14:39;2.67;;;1.38;;
2219;SDS011;1116;51.502;7.414;2023-10-19T06:17:09;5.15;;;2.03;;
2219;SDS011;1116;51.502;7.414;2023-10-19T06:19:45;4.63;;;1.70;;
2219;SDS011;1116;51.502;7.414;2023-10-19T06:22:16;4.07;;;1.95;;
2219;SDS011;1116;51.502;7.414;2023-10-19T06:24:46;5.15;;;2.20;;
2219;SDS011;1116;51.502;7.414;2023-10-19T06:27:18;7.47;;;2.17;;
2219;SDS011;1116;51.502;7.414;2023-10-19T06:29:50;2.50;;;1.70;;
2219;SDS011;1116;51.502;7.414;2023-10-19T06:32:20;4.32;;;1.95;;
2219;SDS011;1116;51.502;7.414;2023-10-19T06:34:50;5.85;;;1.70;;
2219;SDS011;1116;51.502;7.414;2023-10-19T06:37:20;4.03;;;1.90;;
2219;SDS011;1116;51.502;7.414;2023-10-19T06:39:51;3.35;;;1.80;;
2219;SDS011;1116;51.502;7.414;2023-10-19T06:42:23;3.78;;;1.70;;
2219;SDS011;1116;51.502;7.414;2023-10-19T06:44:53;4.15;;;1.77;;
2219;SDS011;1116;51.502;7.414;2023-10-19T06:47:25;11.07;;;1.85;;
2219;SDS011;1116;51.502;7.414;2023-10-19T06:49:56;5.20;;;1.90;;
2219;SDS011;1116;51.502;7.414;2023-10-19T06:52:26;4.90;;;2.00;;
2219;SDS011;1116;51.502;7.414;2023-10-19T06:54:59;3.88;;;2.00;;
2219;SDS011;1116;51.502;7.414;2023-10-19T06:57:31;3.80;;;1.48;;
2219;SDS011;1116;51.502;7.414;2023-10-19T07:00:02;3.92;;;1.90;;
2219;SDS011;1116;51.502;7.414;2023-10-19T07:02:40;3.65;;;2.00;;
2219;SDS011;1116;51.502;7.414;2023-10-19T07:05:12;3.53;;;2.15;;
2219;SDS011;1116;51.502;7.414;2023-10-19T07:07:45;3.47;;;2.13;;
2219;SDS011;1116;51.502;7.414;2023-10-19T07:10:15;5.05;;;2.15;;
2219;SDS011;1116;51.502;7.414;2023-10-19T07:12:51;5.72;;;1.70;;
2219;SDS011;1116;51.502;7.414;2023-10-19T07:15:24;4.50;;;2.25;;
2219;SDS011;1116;51.502;7.414;2023-10-19T07:17:56;7.95;;;1.92;;
2219;SDS011;1116;51.502;7.414;2023-10-19T07:20:27;5.93;;;2.13;;
2219;SDS011;1116;51.502;7.414;2023-10-19T07:22:59;2.90;;;1.90;;
2219;SDS011;1116;51.502;7.414;2023-10-19T07:25:36;6.05;;;1.83;;
2219;SDS011;1116;51.502;7.414;2023-10-19T07:28:12;3.40;;;1.90;;
2219;SDS011;1116;51.502;7.414;2023-10-19T07:30:43;7.30;;;1.95;;
2219;SDS011;1116;51.502;7.414;2023-10-19T07:33:14;4.75;;;2.13;;
2219;SDS011;1116;51.502;7.414;2023-10-19T07:35:46;4.28;;;1.98;;
2219;SDS011;1116;51.502;7.414;2023-10-19T07:38:19;4.03;;;1.88;;
2219;SDS011;1116;51.502;7.414;2023-10-19T07:40:50;2.58;;;1.50;;
2219;SDS011;1116;51.502;7.414;2023-10-19T07:43:23;2.97;;;1.80;;
2219;SDS011;1116;51.502;7.414;2023-10-19T07:45:54;3.67;;;2.25;;
2219;SDS011;1116;51.502;7.414;2023-10-19T07:48:25;3.63;;;2.05;;
2219;SDS011;1116;51.502;7.414;2023-10-19T07:50:55;3.05;;;1.88;;
2219;SDS011;1116;51.502;7.414;2023-10-19T07:53:25;5.43;;;2.40;;
2219;SDS011;1116;51.502;7.414;2023-10-19T07:55:56;4.85;;;1.90;;
2219;SDS011;1116;51.502;7.414;2023-10-19T07:58:29;4.45;;;2.00;;
2219;SDS011;1116;51.502;7.414;2023-10-19T08:01:00;4.20;;;1.90;;
2219;SDS011;1116;51.502;7.414;2023-10-19T08:03:32;4.18;;;2.25;;
2219;SDS011;1116;51.502;7.414;2023-10-19T08:06:02;4.00;;;2.30;;
2219;SDS011;1116;51.502;7.414;2023-10-19T08:08:33;2.85;;;1.65;;
2219;SDS011;1116;51.502;7.414;2023-10-19T08:11:04;2.90;;;2.00;;
2219;SDS011;1116;51.502;7.414;2023-10-19T08:13:37;3.83;;;1.80;;
2219;SDS011;1116;51.502;7.414;2023-10-19T08:16:08;3.72;;;1.60;;
2219;SDS011;1116;51.502;7.414;2023-10-19T08:18:38;6.95;;;2.25;;
2219;SDS011;1116;51.502;7.414;2023-10-19T08:21:08;4.18;;;1.60;;
2219;SDS011;1116;51.502;7.414;2023-10-19T08:23:39;3.60;;;1.90;;
2219;SDS011;1116;51.502;7.414;2023-10-19T08:26:11;4.32;;;2.00;;
2219;SDS011;1116;51.502;7.414;2023-10-19T08:28:44;2.90;;;1.63;;
2219;SDS011;1116;51.502;7.414;2023-10-19T08:31:15;6.45;;;1.92;;
2219;SDS011;1116;51.502;7.414;2023-10-19T08:33:45;6.63;;;2.25;;
2219;SDS011;1116;51.502;7.414;2023-10-19T08:36:16;2.60;;;1.35;;
2219;SDS011;1116;51.502;7.414;2023-10-19T08:38:47;6.68;;;1.50;;
2219;SDS011;1116;51.502;7.414;2023-10-19T08:41:20;3.38;;;1.58;;
2219;SDS011;1116;51.502;7.414;2023-10-19T08:43:53;3.97;;;1.50;;
2219;SDS011;1116;51.502;7.414;2023-10-19T08:46:23;3.10;;;1.80;;
2219;SDS011;1116;51.502;7.414;2023-10-19T08:48:55;1.60;;;1.05;;
2219;SDS011;1116;51.502;7.414;2023-10-19T08:51:26;4.78;;;1.60;;
2219;SDS011;1116;51.502;7.414;2023-10-19T08:53:56;3.28;;;1.65;;
2219;SDS011;1116;51.502;7.414;2023-10-19T08:56:26;3.55;;;1.45;;
2219;SDS011;1116;51.502;7.414;2023-10-19T08:58:59;2.90;;;1.70;;
2219;SDS011;1116;51.502;7.414;2023-10-19T09:01:30;4.05;;;1.75;;
2219;SDS011;1116;51.502;7.414;2023-10-19T09:04:01;3.60;;;1.70;;
2219;SDS011;1116;51.502;7.414;2023-10-19T09:06:34;5.50;;;1.80;;
2219;SDS011;1116;51.502;7.414;2023-10-19T09:09:08;3.78;;;1.60;;
2219;SDS011;1116;51.502;7.414;2023-10-19T09:14:16;2.85;;;1.65;;
2219;SDS011;1116;51.502;7.414;2023-10-19T09:17:02;4.65;;;1.80;;
2219;SDS011;1116;51.502;7.414;2023-10-19T09:19:35;5.13;;;1.95;;
2219;SDS011;1116;51.502;7.414;2023-10-19T09:22:10;3.13;;;1.20;;
2219;SDS011;1116;51.502;7.414;2023-10-19T09:24:45;1.55;;;1.17;;
2219;SDS011;1116;51.502;7.414;2023-10-19T09:27:17;4.05;;;1.38;;
2219;SDS011;1116;51.502;7.414;2023-10-19T09:29:50;2.25;;;1.40;;
2219;SDS011;1116;51.502;7.414;2023-10-19T09:32:20;3.80;;;1.50;;
2219;SDS011;1116;51.502;7.414;2023-10-19T09:34:51;2.85;;;1.50;;
2219;SDS011;1116;51.502;7.414;2023-10-19T09:37:22;3.45;;;1.30;;
2219;SDS011;1116;51.502;7.414;2023-10-19T09:39:52;4.45;;;1.20;;
2219;SDS011;1116;51.502;7.414;2023-10-19T09:42:23;2.00;;;1.20;;
2219;SDS011;1116;51.502;7.414;2023-10-19T09:44:59;6.00;;;1.20;;
2219;SDS011;1116;51.502;7.414;2023-10-19T09:47:34;2.55;;;1.10;;
2219;SDS011;1116;51.502;7.414;2023-10-19T09:50:08;4.30;;;1.50;;
2219;SDS011;1116;51.502;7.414;2023-10-19T09:52:39;7.82;;;1.83;;
2219;SDS011;1116;51.502;7.414;2023-10-19T09:55:10;7.35;;;1.98;;
2219;SDS011;1116;51.502;7.414;2023-10-19T09:57:56;8.45;;;1.38;;
2219;SDS011;1116;51.502;7.414;2023-10-19T10:00:36;4.88;;;1.15;;
2219;SDS011;1116;51.502;7.414;2023-10-19T10:03:09;3.15;;;1.20;;
2219;SDS011;1116;51.502;7.414;2023-10-19T10:06:14;4.93;;;1.33;;
2219;SDS011;1116;51.502;7.414;2023-10-19T10:08:47;5.13;;;1.92;;
2219;SDS011;1116;51.502;7.414;2023-10-19T10:11:19;4.50;;;1.67;;
2219;SDS011;1116;51.502;7.414;2023-10-19T10:13:53;5.85;;;1.75;;
2219;SDS011;1116;51.502;7.414;2023-10-19T10:16:27;2.90;;;1.42;;
2219;SDS011;1116;51.502;7.414;2023-10-19T10:18:58;5.53;;;1.60;;
2219;SDS011;1116;51.502;7.414;2023-10-19T10:21:30;2.92;;;1.20;;
2219;SDS011;1116;51.502;7.414;2023-10-19T10:24:02;6.75;;;1.58;;
2219;SDS011;1116;51.502;7.414;2023-10-19T10:29:29;6.70;;;1.95;;
2219;SDS011;1116;51.502;7.414;2023-10-19T10:32:02;2.67;;;1.15;;
2219;SDS011;1116;51.502;7.414;2023-10-19T10:34:42;5.75;;;1.88;;
2219;SDS011;1116;51.502;7.414;2023-10-19T10:37:13;3.88;;;0.95;;
2219;SDS011;1116;51.502;7.414;2023-10-19T10:39:43;4.90;;;1.48;;
2219;SDS011;1116;51.502;7.414;2023-10-19T10:42:13;3.08;;;1.10;;
2219;SDS011;1116;51.502;7.414;2023-10-19T10:44:46;9.75;;;1.60;;
2219;SDS011;1116;51.502;7.414;2023-10-19T10:47:24;5.38;;;1.27;;
2219;SDS011;1116;51.502;7.414;2023-10-19T10:49:57;2.78;;;1.05;;
2219;SDS011;1116;51.502;7.414;2023-10-19T10:52:30;3.58;;;1.00;;
2219;SDS011;1116;51.502;7.414;2023-10-19T10:55:07;2.75;;;1.00;;
2219;SDS011;1116;51.502;7.414;2023-10-19T10:57:39;6.13;;;1.17;;
2219;SDS011;1116;51.502;7.414;2023-10-19T11:00:11;2.78;;;1.10;;
2219;SDS011;1116;51.502;7.414;2023-10-19T11:02:58;1.95;;;0.88;;
2219;SDS011;1116;51.502;7.414;2023-10-19T11:05:31;3.25;;;0.95;;
2219;SDS011;1116;51.502;7.414;2023-10-19T11:08:03;5.32;;;1.27;;
2219;SDS011;1116;51.502;7.414;2023-10-19T11:10:40;1.27;;;0.57;;
2219;SDS011;1116;51.502;7.414;2023-10-19T11:13:13;5.03;;;1.42;;
2219;SDS011;1116;51.502;7.414;2023-10-19T11:15:48;5.78;;;0.95;;
2219;SDS011;1116;51.502;7.414;2023-10-19T11:18:30;3.00;;;0.95;;
2219;SDS011;1116;51.502;7.414;2023-10-19T11:21:06;5.05;;;1.50;;
2219;SDS011;1116;51.502;7.414;2023-10-19T11:23:42;5.35;;;1.10;;
2219;SDS011;1116;51.502;7.414;2023-10-19T11:26:16;5.95;;;1.50;;
2219;SDS011;1116;51.502;7.414;2023-10-19T11:28:56;2.53;;;1.10;;
2219;SDS011;1116;51.502;7.414;2023-10-19T11:31:27;3.63;;;0.95;;
2219;SDS011;1116;51.502;7.414;2023-10-19T11:34:06;11.52;;;1.25;;
2219;SDS011;1116;51.502;7.414;2023-10-19T11:36:44;7.28;;;1.23;;
2219;SDS011;1116;51.502;7.414;2023-10-19T11:39:14;2.47;;;1.00;;
2219;SDS011;1116;51.502;7.414;2023-10-19T11:41:45;11.75;;;1.67;;
2219;SDS011;1116;51.502;7.414;2023-10-19T11:44:15;2.72;;;0.80;;
2219;SDS011;1116;51.502;7.414;2023-10-19T11:46:46;12.32;;;1.73;;
2219;SDS011;1116;51.502;7.414;2023-10-19T11:49:19;6.05;;;1.25;;
2219;SDS011;1116;51.502;7.414;2023-10-19T11:51:52;5.22;;;1.33;;
2219;SDS011;1116;51.502;7.414;2023-10-19T11:54:23;7.80;;;1.52;;
2219;SDS011;1116;51.502;7.414;2023-10-19T11:56:53;5.25;;;1.50;;
2219;SDS011;1116;51.502;7.414;2023-10-19T11:59:23;5.35;;;1.27;;
2219;SDS011;1116;51.502;7.414;2023-10-19T12:01:53;5.68;;;1.25;;
2219;SDS011;1116;51.502;7.414;2023-10-19T12:04:28;6.30;;;1.15;;
2219;SDS011;1116;51.502;7.414;2023-10-19T12:06:59;3.17;;;1.33;;
2219;SDS011;1116;51.502;7.414;2023-10-19T12:09:29;4.75;;;1.40;;
2219;SDS011;1116;51.502;7.414;2023-10-19T12:12:00;5.25;;;1.55;;
2219;SDS011;1116;51.502;7.414;2023-10-19T12:14:32;7.45;;;1.55;;
2219;SDS011;1116;51.502;7.414;2023-10-19T12:17:03;6.70;;;1.67;;
2219;SDS011;1116;51.502;7.414;2023-10-19T12:19:37;5.13;;;1.58;;
2219;SDS011;1116;51.502;7.414;2023-10-19T12:22:07;8.45;;;1.48;;
2219;SDS011;1116;51.502;7.414;2023-10-19T12:24:37;3.00;;;1.10;;
2219;SDS011;1116;51.502;7.414;2023-10-19T12:27:07;3.75;;;0.95;;
2219;SDS011;1116;51.502;7.414;2023-10-19T12:29:40;5.22;;;1.17;;
2219;SDS011;1116;51.502;7.414;2023-10-19T12:32:10;4.13;;;1.42;;
2219;SDS011;1116;51.502;7.414;2023-10-19T12:34:43;6.22;;;1.63;;
2219;SDS011;1116;51.502;7.414;2023-10-19T12:37:19;5.05;;;1.38;;
2219;SDS011;1116;51.502;7.414;2023-10-19T12:39:50;7.32;;;1.50;;
2219;SDS011;1116;51.502;7.414;2023-10-19T12:42:21;8.93;;;1.63;;
2219;SDS011;1116;51.502;7.414;2023-10-19T12:44:53;6.07;;;1.20;;
2219;SDS011;1116;51.502;7.414;2023-10-19T12:47:23;6.63;;;1.27;;
2219;SDS011;1116;51.502;7.414;2023-10-19T12:49:56;3.53;;;1.38;;
2219;SDS011;1116;51.502;7.414;2023-10-19T12:52:27;7.22;;;1.27;;
2219;SDS011;1116;51.502;7.414;2023-10-19T12:55:02;3.15;;;1.40;;
2219;SDS011;1116;51.502;7.414;2023-10-19T12:57:33;4.78;;;1.60;;
2219;SDS011;1116;51.502;7.414;2023-10-19T13:00:06;5.47;;;1.45;;
2219;SDS011;1116;51.502;7.414;2023-10-19T13:02:52;3.30;;;1.15;;
2219;SDS011;1116;51.502;7.414;2023-10-19T13:05:29;5.77;;;1.77;;
2219;SDS011;1116;51.502;7.414;2023-10-19T13:08:04;7.68;;;1.77;;
2219;SDS011;1116;51.502;7.414;2023-10-19T13:10:36;4.68;;;1.65;;
2219;SDS011;1116;51.502;7.414;2023-10-19T13:13:09;8.88;;;1.63;;
2219;SDS011;1116;51.502;7.414;2023-10-19T13:15:42;3.67;;;1.20;;
2219;SDS011;1116;51.502;7.414;2023-10-19T13:18:14;3.72;;;1.85;;
2219;SDS011;1116;51.502;7.414;2023-10-19T13:20:50;4.93;;;1.50;;
2219;SDS011;1116;51.502;7.414;2023-10-19T13:23:20;8.02;;;1.25;;
2219;SDS011;1116;51.502;7.414;2023-10-19T13:25:51;10.00;;;1.63;;
2219;SDS011;1116;51.502;7.414;2023-10-19T13:28:27;3.25;;;1.05;;
2219;SDS011;1116;51.502;7.414;2023-10-19T13:30:58;3.25;;;1.38;;
2219;SDS011;1116;51.502;7.414;2023-10-19T13:33:30;5.00;;;1.25;;
2219;SDS011;1116;51.502;7.414;2023-10-19T13:36:03;4.95;;;1.52;;
2219;SDS011;1116;51.502;7.414;2023-10-19T13:38:33;4.72;;;1.40;;
2219;SDS011;1116;51.502;7.414;2023-10-19T13:41:04;5.78;;;1.33;;
2219;SDS011;1116;51.502;7.414;2023-10-19T13:43:36;3.25;;;1.20;;
2219;SDS011;1116;51.502;7.414;2023-10-19T13:46:09;7.70;;;1.67;;
2219;SDS011;1116;51.502;7.414;2023-10-19T13:48:39;8.75;;;1.58;;
2219;SDS011;1116;51.502;7.414;2023-10-19T13:51:15;3.65;;;1.30;;
2219;SDS011;1116;51.502;7.414;2023-10-19T13:53:46;9.55;;;1.80;;
2219;SDS011;1116;51.502;7.414;2023-10-19T13:56:16;2.72;;;1.23;;
2219;SDS011;1116;51.502;7.414;2023-10-19T13:58:46;8.52;;;2.05;;
2219;SDS011;1116;51.502;7.414;2023-10-19T14:01:17;5.75;;;1.85;;
2219;SDS011;1116;51.502;7.414;2023-10-19T14:03:51;3.38;;;1.25;;
2219;SDS011;1116;51.502;7.414;2023-10-19T14:06:25;3.30;;;1.13;;
2219;SDS011;1116;51.502;7.414;2023-10-19T14:08:56;3.13;;;1.27;;
2219;SDS011;1116;51.502;7.414;2023-10-19T14:11:26;5.15;;;1.30;;
2219;SDS011;1116;51.502;7.414;2023-10-19T14:13:56;4.22;;;1.42;;
2219;SDS011;1116;51.502;7.414;2023-10-19T14:16:27;5.65;;;1.50;;
2219;SDS011;1116;51.502;7.414;2023-10-19T14:18:57;8.25;;;1.85;;
2219;SDS011;1116;51.502;7.414;2023-10-19T14:21:32;2.72;;;1.50;;
2219;SDS011;1116;51.502;7.414;2023-10-19T14:24:04;5.13;;;1.65;;
2219;SDS011;1116;51.502;7.414;2023-10-19T14:26:35;4.30;;;1.70;;
2219;SDS011;1116;51.502;7.414;2023-10-19T14:29:07;4.88;;;1.42;;
2219;SDS011;1116;51.502;7.414;2023-10-19T14:31:38;5.60;;;1.80;;
2219;SDS011;1116;51.502;7.414;2023-10-19T14:34:09;6.13;;;1.35;;
2219;SDS011;1116;51.502;7.414;2023-10-19T14:36:41;7.70;;;1.92;;
2219;SDS011;1116;51.502;7.414;2023-10-19T14:39:11;10.07;;;1.95;;
2219;SDS011;1116;51.502;7.414;2023-10-19T14:41:44;9.68;;;1.60;;
2219;SDS011;1116;51.502;7.414;2023-10-19T14:44:14;8.27;;;1.95;;
2219;SDS011;1116;51.502;7.414;2023-10-19T14:46:45;10.40;;;2.80;;
2219;SDS011;1116;51.502;7.414;2023-10-19T14:49:15;5.10;;;1.83;;
2219;SDS011;1116;51.502;7.414;2023-10-19T14:51:48;4.70;;;1.95;;
2219;SDS011;1116;51.502;7.414;2023-10-19T14:54:18;4.13;;;2.03;;
2219;SDS011;1116;51.502;7.414;2023-10-19T14:56:48;9.57;;;2.58;;
2219;SDS011;1116;51.502;7.414;2023-10-19T14:59:18;6.32;;;1.85;;
2219;SDS011;1116;51.502;7.414;2023-10-19T15:01:49;7.13;;;2.33;;
2219;SDS011;1116;51.502;7.414;2023-10-19T15:04:19;10.75;;;2.70;;
2219;SDS011;1116;51.502;7.414;2023-10-19T15:06:55;6.22;;;2.10;;
2219;SDS011;1116;51.502;7.414;2023-10-19T15:09:27;7.75;;;1.83;;
2219;SDS011;1116;51.502;7.414;2023-10-19T15:11:58;6.07;;;1.95;;
2219;SDS011;1116;51.502;7.414;2023-10-19T15:14:29;3.50;;;1.65;;
2219;SDS011;1116;51.502;7.414;2023-10-19T15:16:59;3.22;;;1.75;;
2219;SDS011;1116;51.502;7.414;2023-10-19T15:19:30;5.03;;;1.65;;
2219;SDS011;1116;51.502;7.414;2023-10-19T15:22:03;6.05;;;1.90;;
2219;SDS011;1116;51.502;7.414;2023-10-19T15:24:34;4.03;;;1.70;;
2219;SDS011;1116;51.502;7.414;2023-10-19T15:27:04;4.03;;;1.90;;
2219;SDS011;1116;51.502;7.414;2023-10-19T15:29:34;5.32;;;2.45;;
2219;SDS011;1116;51.502;7.414;2023-10-19T15:32:04;6.32;;;1.98;;
2219;SDS011;1116;51.502;7.414;2023-10-19T15:34:35;5.47;;;1.95;;
2219;SDS011;1116;51.502;7.414;2023-10-19T15:37:08;4.38;;;2.05;;
2219;SDS011;1116;51.502;7.414;2023-10-19T15:39:39;3.70;;;1.70;;
2219;SDS011;1116;51.502;7.414;2023-10-19T15:42:10;6.35;;;2.55;;
2219;SDS011;1116;51.502;7.414;2023-10-19T15:44:40;4.82;;;1.65;;
2219;SDS011;1116;51.502;7.414;2023-10-19T15:47:12;5.55;;;1.83;;
2219;SDS011;1116;51.502;7.414;2023-10-19T15:49:46;5.22;;;1.80;;
2219;SDS011;1116;51.502;7.414;2023-10-19T15:52:22;3.47;;;1.70;;
2219;SDS011;1116;51.502;7.414;2023-10-19T15:54:54;5.05;;;2.05;;
2219;SDS011;1116;51.502;7.414;2023-10-19T15:57:24;5.63;;;1.63;;